sensor_id;sensor_type;location;lat;lon;timestamp;temperature;humidity
70244;DHT22;57634;51.136;17.024;2023-06-10T00:01:44;17.70;93.70
70244;DHT22;57634;51.136;17.024;2023-06-10T00:04:48;17.80;93.80
70244;DHT22;57634;51.136;17.024;2023-06-10T00:07:49;17.80;93.90
70244;DHT22;57634;51.136;17.024;2023-06-10T00:10:51;17.80;93.90
70244;DHT22;57634;51.136;17.024;2023-06-10T00:13:52;17.80;93.80
70244;DHT22;57634;51.136;17.024;2023-06-10T00:16:53;17.80;93.80
70244;DHT22;57634;51.136;17.024;2023-06-10T00:20:23;17.80;93.80
70244;DHT22;57634;51.136;17.024;2023-06-10T00:23:26;17.80;93.80
70244;DHT22;57634;51.136;17.024;2023-06-10T00:26:32;17.80;93.80
70244;DHT22;57634;51.136;17.024;2023-06-10T00:29:33;17.80;93.80
70244;DHT22;57634;51.136;17.024;2023-06-10T00:32:36;17.80;93.70
70244;DHT22;57634;51.136;17.024;2023-06-10T00:35:37;17.80;93.70
70244;DHT22;57634;51.136;17.024;2023-06-10T00:38:39;17.80;93.70
70244;DHT22;57634;51.136;17.024;2023-06-10T00:41:42;17.80;93.70
70244;DHT22;57634;51.136;17.024;2023-06-10T00:44:43;17.70;93.70
70244;DHT22;57634;51.136;17.024;2023-06-10T00:47:44;17.80;93.70
70244;DHT22;57634;51.136;17.024;2023-06-10T00:50:46;17.70;93.60
70244;DHT22;57634;51.136;17.024;2023-06-10T00:53:48;17.70;93.60
70244;DHT22;57634;51.136;17.024;2023-06-10T00:57:18;17.80;93.60
70244;DHT22;57634;51.136;17.024;2023-06-10T01:00:20;17.70;93.60
70244;DHT22;57634;51.136;17.024;2023-06-10T01:03:21;17.80;93.60
70244;DHT22;57634;51.136;17.024;2023-06-10T01:06:38;17.80;93.70
70244;DHT22;57634;51.136;17.024;2023-06-10T01:09:44;17.90;93.70
70244;DHT22;57634;51.136;17.024;2023-06-10T01:12:55;17.90;93.70
70244;DHT22;57634;51.136;17.024;2023-06-10T01:15:57;17.90;93.70
70244;DHT22;57634;51.136;17.024;2023-06-10T01:19:26;17.90;93.60
70244;DHT22;57634;51.136;17.024;2023-06-10T01:22:31;17.90;93.70
70244;DHT22;57634;51.136;17.024;2023-06-10T01:25:41;17.90;93.70
70244;DHT22;57634;51.136;17.024;2023-06-10T01:28:54;18.00;93.60
70244;DHT22;57634;51.136;17.024;2023-06-10T01:32:08;17.90;93.70
70244;DHT22;57634;51.136;17.024;2023-06-10T01:35:12;18.00;93.70
70244;DHT22;57634;51.136;17.024;2023-06-10T01:38:43;18.00;93.70
70244;DHT22;57634;51.136;17.024;2023-06-10T01:41:45;18.00;93.70
70244;DHT22;57634;51.136;17.024;2023-06-10T01:44:47;18.00;93.60
70244;DHT22;57634;51.136;17.024;2023-06-10T01:47:49;18.00;93.60
70244;DHT22;57634;51.136;17.024;2023-06-10T01:50:50;18.10;93.70
70244;DHT22;57634;51.136;17.024;2023-06-10T01:53:51;18.10;93.60
70244;DHT22;57634;51.136;17.024;2023-06-10T01:56:53;18.10;93.60
70244;DHT22;57634;51.136;17.024;2023-06-10T01:59:54;18.10;93.50
70244;DHT22;57634;51.136;17.024;2023-06-10T02:02:55;18.10;93.50
70244;DHT22;57634;51.136;17.024;2023-06-10T02:05:57;18.10;93.40
70244;DHT22;57634;51.136;17.024;2023-06-10T02:08:58;18.10;93.30
70244;DHT22;57634;51.136;17.024;2023-06-10T02:12:00;18.10;93.30
70244;DHT22;57634;51.136;17.024;2023-06-10T02:15:01;18.00;93.30
70244;DHT22;57634;51.136;17.024;2023-06-10T02:18:02;18.00;93.20
70244;DHT22;57634;51.136;17.024;2023-06-10T02:21:29;18.00;93.30
70244;DHT22;57634;51.136;17.024;2023-06-10T02:24:30;18.00;93.30
70244;DHT22;57634;51.136;17.024;2023-06-10T02:27:31;18.00;93.30
70244;DHT22;57634;51.136;17.024;2023-06-10T02:30:33;18.00;93.30
70244;DHT22;57634;51.136;17.024;2023-06-10T02:33:34;18.00;93.20
70244;DHT22;57634;51.136;17.024;2023-06-10T02:36:35;18.00;93.10
70244;DHT22;57634;51.136;17.024;2023-06-10T02:39:37;18.00;93.10
70244;DHT22;57634;51.136;17.024;2023-06-10T02:42:38;18.00;93.10
70244;DHT22;57634;51.136;17.024;2023-06-10T02:45:40;18.00;93.10
70244;DHT22;57634;51.136;17.024;2023-06-10T02:48:42;18.00;93.10
70244;DHT22;57634;51.136;17.024;2023-06-10T02:51:47;18.00;93.10
70244;DHT22;57634;51.136;17.024;2023-06-10T02:54:49;18.00;93.20
70244;DHT22;57634;51.136;17.024;2023-06-10T02:57:50;18.00;93.10
70244;DHT22;57634;51.136;17.024;2023-06-10T03:00:51;18.10;93.10
70244;DHT22;57634;51.136;17.024;2023-06-10T03:04:18;18.10;93.10
70244;DHT22;57634;51.136;17.024;2023-06-10T03:07:20;18.00;93.00
70244;DHT22;57634;51.136;17.024;2023-06-10T03:10:21;18.00;92.90
70244;DHT22;57634;51.136;17.024;2023-06-10T03:13:23;17.90;92.80
70244;DHT22;57634;51.136;17.024;2023-06-10T03:16:25;17.90;92.80
70244;DHT22;57634;51.136;17.024;2023-06-10T03:19:30;17.90;92.90
70244;DHT22;57634;51.136;17.024;2023-06-10T03:22:33;17.90;93.00
70244;DHT22;57634;51.136;17.024;2023-06-10T03:25:35;17.90;93.00
70244;DHT22;57634;51.136;17.024;2023-06-10T03:28:36;17.90;93.00
70244;DHT22;57634;51.136;17.024;2023-06-10T03:31:37;17.90;92.90
70244;DHT22;57634;51.136;17.024;2023-06-10T03:34:40;17.90;92.80
70244;DHT22;57634;51.136;17.024;2023-06-10T03:37:42;17.90;92.80
70244;DHT22;57634;51.136;17.024;2023-06-10T03:40:43;17.90;92.80
70244;DHT22;57634;51.136;17.024;2023-06-10T03:44:11;18.00;92.90
70244;DHT22;57634;51.136;17.024;2023-06-10T03:47:12;18.00;92.80
70244;DHT22;57634;51.136;17.024;2023-06-10T03:50:14;18.00;92.80
70244;DHT22;57634;51.136;17.024;2023-06-10T03:53:15;18.10;92.80
70244;DHT22;57634;51.136;17.024;2023-06-10T03:56:17;18.10;92.80
70244;DHT22;57634;51.136;17.024;2023-06-10T03:59:18;18.10;92.80
70244;DHT22;57634;51.136;17.024;2023-06-10T04:02:19;18.10;92.70
70244;DHT22;57634;51.136;17.024;2023-06-10T04:05:22;18.20;92.70
70244;DHT22;57634;51.136;17.024;2023-06-10T04:08:23;18.20;92.70
70244;DHT22;57634;51.136;17.024;2023-06-10T04:11:25;18.30;92.70
70244;DHT22;57634;51.136;17.024;2023-06-10T04:14:26;18.30;92.60
70244;DHT22;57634;51.136;17.024;2023-06-10T04:17:27;18.30;92.60
70244;DHT22;57634;51.136;17.024;2023-06-10T04:20:28;18.40;92.60
70244;DHT22;57634;51.136;17.024;2023-06-10T04:23:29;18.40;92.50
70244;DHT22;57634;51.136;17.024;2023-06-10T04:26:59;18.40;92.40
70244;DHT22;57634;51.136;17.024;2023-06-10T04:30:02;18.40;92.50
70244;DHT22;57634;51.136;17.024;2023-06-10T04:33:05;18.50;92.50
70244;DHT22;57634;51.136;17.024;2023-06-10T04:36:09;18.50;92.30
70244;DHT22;57634;51.136;17.024;2023-06-10T04:39:11;18.50;92.20
70244;DHT22;57634;51.136;17.024;2023-06-10T04:42:13;18.50;92.20
70244;DHT22;57634;51.136;17.024;2023-06-10T04:45:17;18.50;92.10
70244;DHT22;57634;51.136;17.024;2023-06-10T04:48:19;18.50;92.10
70244;DHT22;57634;51.136;17.024;2023-06-10T04:51:20;18.60;92.20
70244;DHT22;57634;51.136;17.024;2023-06-10T04:54:22;18.60;92.20
70244;DHT22;57634;51.136;17.024;2023-06-10T04:57:23;18.70;92.20
70244;DHT22;57634;51.136;17.024;2023-06-10T05:00:24;18.80;92.20
70244;DHT22;57634;51.136;17.024;2023-06-10T05:03:53;18.80;92.10
70244;DHT22;57634;51.136;17.024;2023-06-10T05:06:54;18.80;92.20
70244;DHT22;57634;51.136;17.024;2023-06-10T05:09:56;18.90;92.10
70244;DHT22;57634;51.136;17.024;2023-06-10T05:12:58;19.00;92.00
70244;DHT22;57634;51.136;17.024;2023-06-10T05:16:01;19.00;91.90
70244;DHT22;57634;51.136;17.024;2023-06-10T05:19:03;19.10;91.80
70244;DHT22;57634;51.136;17.024;2023-06-10T05:22:05;19.20;91.70
70244;DHT22;57634;51.136;17.024;2023-06-10T05:25:07;19.20;91.60
70244;DHT22;57634;51.136;17.024;2023-06-10T05:28:08;19.30;91.60
70244;DHT22;57634;51.136;17.024;2023-06-10T05:31:12;19.40;91.60
70244;DHT22;57634;51.136;17.024;2023-06-10T05:34:13;19.60;91.40
70244;DHT22;57634;51.136;17.024;2023-06-10T05:37:15;19.60;91.20
70244;DHT22;57634;51.136;17.024;2023-06-10T05:40:16;19.70;91.00
70244;DHT22;57634;51.136;17.024;2023-06-10T05:43:44;19.80;90.60
70244;DHT22;57634;51.136;17.024;2023-06-10T05:46:46;19.80;90.30
70244;DHT22;57634;51.136;17.024;2023-06-10T05:49:47;19.90;90.00
70244;DHT22;57634;51.136;17.024;2023-06-10T05:52:52;20.00;89.70
70244;DHT22;57634;51.136;17.024;2023-06-10T05:55:55;20.20;89.00
70244;DHT22;57634;51.136;17.024;2023-06-10T05:58:58;20.50;89.00
70244;DHT22;57634;51.136;17.024;2023-06-10T06:01:59;21.50;90.30
70244;DHT22;57634;51.136;17.024;2023-06-10T06:05:01;23.00;85.00
70244;DHT22;57634;51.136;17.024;2023-06-10T06:08:02;23.90;80.60
70244;DHT22;57634;51.136;17.024;2023-06-10T06:11:03;24.30;77.20
70244;DHT22;57634;51.136;17.024;2023-06-10T06:14:05;24.40;75.10
70244;DHT22;57634;51.136;17.024;2023-06-10T06:17:06;24.10;74.30
70244;DHT22;57634;51.136;17.024;2023-06-10T06:20:08;23.90;74.20
70244;DHT22;57634;51.136;17.024;2023-06-10T06:23:36;23.60;73.80
70244;DHT22;57634;51.136;17.024;2023-06-10T06:26:37;23.10;73.40
70244;DHT22;57634;51.136;17.024;2023-06-10T06:29:38;22.70;74.40
70244;DHT22;57634;51.136;17.024;2023-06-10T06:32:39;22.40;75.50
70244;DHT22;57634;51.136;17.024;2023-06-10T06:35:40;22.20;76.20
70244;DHT22;57634;51.136;17.024;2023-06-10T06:38:42;22.10;77.10
70244;DHT22;57634;51.136;17.024;2023-06-10T06:41:43;22.00;77.00
70244;DHT22;57634;51.136;17.024;2023-06-10T06:44:45;22.00;77.50
70244;DHT22;57634;51.136;17.024;2023-06-10T06:47:47;21.90;77.90
70244;DHT22;57634;51.136;17.024;2023-06-10T06:50:49;22.00;78.10
70244;DHT22;57634;51.136;17.024;2023-06-10T06:53:50;22.10;78.10
70244;DHT22;57634;51.136;17.024;2023-06-10T06:56:54;22.20;77.60
70244;DHT22;57634;51.136;17.024;2023-06-10T06:59:56;22.20;77.20
70244;DHT22;57634;51.136;17.024;2023-06-10T07:02:57;22.30;77.00
70244;DHT22;57634;51.136;17.024;2023-06-10T07:06:24;22.40;76.40
70244;DHT22;57634;51.136;17.024;2023-06-10T07:09:27;22.40;75.70
70244;DHT22;57634;51.136;17.024;2023-06-10T07:12:29;22.40;75.50
70244;DHT22;57634;51.136;17.024;2023-06-10T07:15:30;22.30;75.30
70244;DHT22;57634;51.136;17.024;2023-06-10T07:18:34;22.20;75.60
70244;DHT22;57634;51.136;17.024;2023-06-10T07:21:35;22.10;75.50
70244;DHT22;57634;51.136;17.024;2023-06-10T07:24:37;22.10;75.70
70244;DHT22;57634;51.136;17.024;2023-06-10T07:27:38;22.10;75.70
70244;DHT22;57634;51.136;17.024;2023-06-10T07:30:39;22.20;75.10
70244;DHT22;57634;51.136;17.024;2023-06-10T07:33:40;22.20;75.10
70244;DHT22;57634;51.136;17.024;2023-06-10T07:36:44;22.30;74.80
70244;DHT22;57634;51.136;17.024;2023-06-10T07:39:45;22.30;74.40
70244;DHT22;57634;51.136;17.024;2023-06-10T07:42:47;22.30;74.30
70244;DHT22;57634;51.136;17.024;2023-06-10T07:46:15;22.40;73.90
70244;DHT22;57634;51.136;17.024;2023-06-10T07:49:16;22.50;73.30
70244;DHT22;57634;51.136;17.024;2023-06-10T07:52:18;22.50;73.20
70244;DHT22;57634;51.136;17.024;2023-06-10T07:55:19;22.70;73.10
70244;DHT22;57634;51.136;17.024;2023-06-10T07:58:20;23.10;72.60
70244;DHT22;57634;51.136;17.024;2023-06-10T08:01:23;23.70;70.80
70244;DHT22;57634;51.136;17.024;2023-06-10T08:04:25;24.20;69.30
70244;DHT22;57634;51.136;17.024;2023-06-10T08:07:27;24.70;68.30
70244;DHT22;57634;51.136;17.024;2023-06-10T08:10:29;25.50;66.60
70244;DHT22;57634;51.136;17.024;2023-06-10T08:13:30;26.10;64.00
70244;DHT22;57634;51.136;17.024;2023-06-10T08:16:31;26.50;63.20
70244;DHT22;57634;51.136;17.024;2023-06-10T08:19:32;27.00;62.30
70244;DHT22;57634;51.136;17.024;2023-06-10T08:22:33;27.60;60.90
70244;DHT22;57634;51.136;17.024;2023-06-10T08:25:34;28.00;58.70
70244;DHT22;57634;51.136;17.024;2023-06-10T08:29:03;28.50;57.20
70244;DHT22;57634;51.136;17.024;2023-06-10T08:32:04;29.60;54.10
70244;DHT22;57634;51.136;17.024;2023-06-10T08:35:06;30.70;51.30
70244;DHT22;57634;51.136;17.024;2023-06-10T08:38:07;32.00;49.60
70244;DHT22;57634;51.136;17.024;2023-06-10T08:41:10;33.60;46.80
70244;DHT22;57634;51.136;17.024;2023-06-10T08:44:24;35.50;44.20
70244;DHT22;57634;51.136;17.024;2023-06-10T08:47:29;37.00;40.50
70244;DHT22;57634;51.136;17.024;2023-06-10T08:51:18;37.90;38.10
70244;DHT22;57634;51.136;17.024;2023-06-10T08:54:22;37.80;36.30
70244;DHT22;57634;51.136;17.024;2023-06-10T08:57:27;37.30;36.10
70244;DHT22;57634;51.136;17.024;2023-06-10T09:00:29;36.70;37.10
70244;DHT22;57634;51.136;17.024;2023-06-10T09:03:31;36.50;37.50
70244;DHT22;57634;51.136;17.024;2023-06-10T09:06:36;36.80;37.60
70244;DHT22;57634;51.136;17.024;2023-06-10T09:09:39;37.80;36.60
70244;DHT22;57634;51.136;17.024;2023-06-10T09:12:41;38.70;35.00
70244;DHT22;57634;51.136;17.024;2023-06-10T09:15:42;39.40;34.00
70244;DHT22;57634;51.136;17.024;2023-06-10T09:18:43;40.00;32.60
70244;DHT22;57634;51.136;17.024;2023-06-10T09:22:12;39.80;30.70
70244;DHT22;57634;51.136;17.024;2023-06-10T09:25:13;38.60;30.60
70244;DHT22;57634;51.136;17.024;2023-06-10T09:28:15;37.40;31.30
70244;DHT22;57634;51.136;17.024;2023-06-10T09:31:17;36.70;32.20
70244;DHT22;57634;51.136;17.024;2023-06-10T09:34:25;36.20;33.60
70244;DHT22;57634;51.136;17.024;2023-06-10T09:37:27;36.00;33.20
70244;DHT22;57634;51.136;17.024;2023-06-10T09:40:29;35.90;34.00
70244;DHT22;57634;51.136;17.024;2023-06-10T09:43:40;36.10;33.40
70244;DHT22;57634;51.136;17.024;2023-06-10T09:46:45;36.00;33.40
70244;DHT22;57634;51.136;17.024;2023-06-10T09:50:13;35.90;33.40
70244;DHT22;57634;51.136;17.024;2023-06-10T09:53:17;35.30;33.50
70244;DHT22;57634;51.136;17.024;2023-06-10T09:56:18;34.90;34.20
70244;DHT22;57634;51.136;17.024;2023-06-10T09:59:29;34.30;34.40
70244;DHT22;57634;51.136;17.024;2023-06-10T10:05:45;32.80;36.30
70244;DHT22;57634;51.136;17.024;2023-06-10T10:08:48;32.40;36.90
70244;DHT22;57634;51.136;17.024;2023-06-10T10:11:51;32.00;38.00
70244;DHT22;57634;51.136;17.024;2023-06-10T10:15:21;31.90;37.70
70244;DHT22;57634;51.136;17.024;2023-06-10T10:18:24;31.50;37.90
70244;DHT22;57634;51.136;17.024;2023-06-10T10:21:36;31.00;38.10
70244;DHT22;57634;51.136;17.024;2023-06-10T10:24:44;30.60;38.70
70244;DHT22;57634;51.136;17.024;2023-06-10T10:31:07;30.40;39.10
70244;DHT22;57634;51.136;17.024;2023-06-10T10:34:43;30.20;39.40
70244;DHT22;57634;51.136;17.024;2023-06-10T10:37:52;30.30;39.40
70244;DHT22;57634;51.136;17.024;2023-06-10T10:40:55;30.50;38.90
70244;DHT22;57634;51.136;17.024;2023-06-10T10:44:02;30.50;38.50
70244;DHT22;57634;51.136;17.024;2023-06-10T10:47:09;30.60;38.00
70244;DHT22;57634;51.136;17.024;2023-06-10T10:50:18;30.50;38.30
70244;DHT22;57634;51.136;17.024;2023-06-10T10:57:14;30.50;37.90
70244;DHT22;57634;51.136;17.024;2023-06-10T11:03:29;30.30;37.80
70244;DHT22;57634;51.136;17.024;2023-06-10T11:06:33;30.10;36.90
70244;DHT22;57634;51.136;17.024;2023-06-10T11:10:05;29.90;36.40
70244;DHT22;57634;51.136;17.024;2023-06-10T11:13:14;29.70;35.90
70244;DHT22;57634;51.136;17.024;2023-06-10T11:16:19;29.60;35.50
70244;DHT22;57634;51.136;17.024;2023-06-10T11:23:05;29.40;35.60
70244;DHT22;57634;51.136;17.024;2023-06-10T11:26:22;29.30;35.40
70244;DHT22;57634;51.136;17.024;2023-06-10T11:29:33;29.30;35.40
70244;DHT22;57634;51.136;17.024;2023-06-10T11:32:34;29.50;35.70
70244;DHT22;57634;51.136;17.024;2023-06-10T11:35:36;29.70;35.00
70244;DHT22;57634;51.136;17.024;2023-06-10T11:38:37;29.70;34.30
70244;DHT22;57634;51.136;17.024;2023-06-10T11:41:39;29.80;34.20
70244;DHT22;57634;51.136;17.024;2023-06-10T11:44:49;29.80;34.10
70244;DHT22;57634;51.136;17.024;2023-06-10T11:47:56;29.90;34.30
70244;DHT22;57634;51.136;17.024;2023-06-10T11:51:32;29.90;34.10
70244;DHT22;57634;51.136;17.024;2023-06-10T11:54:33;29.70;33.10
70244;DHT22;57634;51.136;17.024;2023-06-10T11:57:35;29.50;33.50
70244;DHT22;57634;51.136;17.024;2023-06-10T12:03:58;29.10;32.40
70244;DHT22;57634;51.136;17.024;2023-06-10T12:07:00;29.00;32.30
70244;DHT22;57634;51.136;17.024;2023-06-10T12:10:01;29.00;31.90
70244;DHT22;57634;51.136;17.024;2023-06-10T12:13:31;28.90;29.60
70244;DHT22;57634;51.136;17.024;2023-06-10T12:16:33;28.80;29.80
70244;DHT22;57634;51.136;17.024;2023-06-10T12:19:38;28.70;29.90
70244;DHT22;57634;51.136;17.024;2023-06-10T12:22:42;28.50;30.00
70244;DHT22;57634;51.136;17.024;2023-06-10T12:25:50;28.40;30.30
70244;DHT22;57634;51.136;17.024;2023-06-10T12:28:52;28.40;31.10
70244;DHT22;57634;51.136;17.024;2023-06-10T12:31:54;28.50;31.30
70244;DHT22;57634;51.136;17.024;2023-06-10T12:35:03;28.60;31.30
70244;DHT22;57634;51.136;17.024;2023-06-10T12:38:07;28.60;31.50
70244;DHT22;57634;51.136;17.024;2023-06-10T12:41:37;28.60;31.70
70244;DHT22;57634;51.136;17.024;2023-06-10T12:44:39;28.70;31.20
70244;DHT22;57634;51.136;17.024;2023-06-10T12:47:42;28.70;31.40
70244;DHT22;57634;51.136;17.024;2023-06-10T12:50:44;28.60;31.70
70244;DHT22;57634;51.136;17.024;2023-06-10T12:53:46;28.60;32.10
70244;DHT22;57634;51.136;17.024;2023-06-10T12:56:48;28.60;31.30
70244;DHT22;57634;51.136;17.024;2023-06-10T12:59:50;28.60;31.20
70244;DHT22;57634;51.136;17.024;2023-06-10T13:02:53;28.50;30.80
70244;DHT22;57634;51.136;17.024;2023-06-10T13:05:54;28.50;31.00
70244;DHT22;57634;51.136;17.024;2023-06-10T13:08:56;28.50;31.20
70244;DHT22;57634;51.136;17.024;2023-06-10T13:11:57;28.40;30.90
70244;DHT22;57634;51.136;17.024;2023-06-10T13:15:00;28.40;30.60
70244;DHT22;57634;51.136;17.024;2023-06-10T13:18:28;28.30;30.70
70244;DHT22;57634;51.136;17.024;2023-06-10T13:21:29;28.30;30.30
70244;DHT22;57634;51.136;17.024;2023-06-10T13:24:30;28.20;30.10
70244;DHT22;57634;51.136;17.024;2023-06-10T13:27:31;28.20;30.00
70244;DHT22;57634;51.136;17.024;2023-06-10T13:30:33;28.30;29.80
70244;DHT22;57634;51.136;17.024;2023-06-10T13:33:34;28.30;29.50
70244;DHT22;57634;51.136;17.024;2023-06-10T13:36:35;28.20;28.70
70244;DHT22;57634;51.136;17.024;2023-06-10T13:39:36;28.20;28.90
70244;DHT22;57634;51.136;17.024;2023-06-10T13:42:38;28.10;29.00
70244;DHT22;57634;51.136;17.024;2023-06-10T13:45:39;28.10;29.20
70244;DHT22;57634;51.136;17.024;2023-06-10T13:48:41;28.10;29.10
70244;DHT22;57634;51.136;17.024;2023-06-10T13:51:43;28.10;29.30
70244;DHT22;57634;51.136;17.024;2023-06-10T13:54:44;28.10;29.30
70244;DHT22;57634;51.136;17.024;2023-06-10T13:57:45;28.10;29.30
70244;DHT22;57634;51.136;17.024;2023-06-10T14:01:15;28.10;29.30
70244;DHT22;57634;51.136;17.024;2023-06-10T14:04:16;28.00;28.90
70244;DHT22;57634;51.136;17.024;2023-06-10T14:07:17;28.10;28.90
70244;DHT22;57634;51.136;17.024;2023-06-10T14:10:19;28.10;29.00
70244;DHT22;57634;51.136;17.024;2023-06-10T14:13:20;28.10;28.30
70244;DHT22;57634;51.136;17.024;2023-06-10T14:16:22;28.10;28.00
70244;DHT22;57634;51.136;17.024;2023-06-10T14:19:23;28.10;27.90
70244;DHT22;57634;51.136;17.024;2023-06-10T14:22:25;28.10;28.10
70244;DHT22;57634;51.136;17.024;2023-06-10T14:25:26;28.00;27.80
70244;DHT22;57634;51.136;17.024;2023-06-10T14:28:27;28.00;27.80
70244;DHT22;57634;51.136;17.024;2023-06-10T14:31:29;28.00;27.90
70244;DHT22;57634;51.136;17.024;2023-06-10T14:34:31;28.00;27.70
70244;DHT22;57634;51.136;17.024;2023-06-10T14:37:34;27.90;27.80
70244;DHT22;57634;51.136;17.024;2023-06-10T14:40:36;27.90;27.80
70244;DHT22;57634;51.136;17.024;2023-06-10T14:44:03;27.90;27.70
70244;DHT22;57634;51.136;17.024;2023-06-10T14:47:05;27.90;27.70
70244;DHT22;57634;51.136;17.024;2023-06-10T14:50:08;27.90;27.30
70244;DHT22;57634;51.136;17.024;2023-06-10T14:53:09;27.80;27.00
70244;DHT22;57634;51.136;17.024;2023-06-10T14:56:10;27.70;27.10
70244;DHT22;57634;51.136;17.024;2023-06-10T14:59:12;27.70;27.20
70244;DHT22;57634;51.136;17.024;2023-06-10T15:02:14;27.70;27.10
70244;DHT22;57634;51.136;17.024;2023-06-10T15:05:16;27.70;27.20
70244;DHT22;57634;51.136;17.024;2023-06-10T15:08:18;27.70;27.30
70244;DHT22;57634;51.136;17.024;2023-06-10T15:11:19;27.70;27.30
70244;DHT22;57634;51.136;17.024;2023-06-10T15:14:22;27.60;27.10
70244;DHT22;57634;51.136;17.024;2023-06-10T15:17:23;27.60;27.30
70244;DHT22;57634;51.136;17.024;2023-06-10T15:20:24;27.60;27.60
70244;DHT22;57634;51.136;17.024;2023-06-10T15:23:53;27.60;27.60
70244;DHT22;57634;51.136;17.024;2023-06-10T15:26:54;27.60;27.60
70244;DHT22;57634;51.136;17.024;2023-06-10T15:29:55;27.60;27.80
70244;DHT22;57634;51.136;17.024;2023-06-10T15:32:57;27.50;27.80
70244;DHT22;57634;51.136;17.024;2023-06-10T15:35:58;27.50;28.00
70244;DHT22;57634;51.136;17.024;2023-06-10T15:39:02;27.40;28.00
70244;DHT22;57634;51.136;17.024;2023-06-10T15:42:05;27.40;27.50
70244;DHT22;57634;51.136;17.024;2023-06-10T15:45:07;27.30;27.50
70244;DHT22;57634;51.136;17.024;2023-06-10T15:48:08;27.20;27.60
70244;DHT22;57634;51.136;17.024;2023-06-10T15:51:10;27.20;27.80
70244;DHT22;57634;51.136;17.024;2023-06-10T15:54:11;27.20;27.60
70244;DHT22;57634;51.136;17.024;2023-06-10T15:57:13;27.10;27.20
70244;DHT22;57634;51.136;17.024;2023-06-10T16:00:16;27.20;27.00
70244;DHT22;57634;51.136;17.024;2023-06-10T16:03:43;27.10;26.60
70244;DHT22;57634;51.136;17.024;2023-06-10T16:06:45;27.10;26.40
70244;DHT22;57634;51.136;17.024;2023-06-10T16:09:46;27.10;26.40
70244;DHT22;57634;51.136;17.024;2023-06-10T16:12:48;27.00;26.50
70244;DHT22;57634;51.136;17.024;2023-06-10T16:15:49;27.00;26.60
70244;DHT22;57634;51.136;17.024;2023-06-10T16:18:50;27.00;26.70
70244;DHT22;57634;51.136;17.024;2023-06-10T16:21:51;27.00;26.70
70244;DHT22;57634;51.136;17.024;2023-06-10T16:24:52;26.90;26.60
70244;DHT22;57634;51.136;17.024;2023-06-10T16:27:54;26.90;26.60
70244;DHT22;57634;51.136;17.024;2023-06-10T16:30:55;26.80;26.70
70244;DHT22;57634;51.136;17.024;2023-06-10T16:33:56;26.80;26.80
70244;DHT22;57634;51.136;17.024;2023-06-10T16:36:57;26.70;27.00
70244;DHT22;57634;51.136;17.024;2023-06-10T16:39:58;26.70;27.30
70244;DHT22;57634;51.136;17.024;2023-06-10T16:43:00;26.60;27.40
70244;DHT22;57634;51.136;17.024;2023-06-10T16:46:01;26.60;27.70
70244;DHT22;57634;51.136;17.024;2023-06-10T16:49:28;26.50;27.80
70244;DHT22;57634;51.136;17.024;2023-06-10T16:52:29;26.40;28.10
70244;DHT22;57634;51.136;17.024;2023-06-10T16:55:31;26.30;28.40
70244;DHT22;57634;51.136;17.024;2023-06-10T16:58:32;26.20;28.70
70244;DHT22;57634;51.136;17.024;2023-06-10T17:01:34;26.20;28.90
70244;DHT22;57634;51.136;17.024;2023-06-10T17:04:36;26.10;29.10
70244;DHT22;57634;51.136;17.024;2023-06-10T17:07:37;26.00;29.30
70244;DHT22;57634;51.136;17.024;2023-06-10T17:10:38;25.90;29.50
70244;DHT22;57634;51.136;17.024;2023-06-10T17:13:40;25.90;29.70
70244;DHT22;57634;51.136;17.024;2023-06-10T17:16:41;25.90;29.90
70244;DHT22;57634;51.136;17.024;2023-06-10T17:19:42;25.80;30.00
70244;DHT22;57634;51.136;17.024;2023-06-10T17:22:43;25.80;30.10
70244;DHT22;57634;51.136;17.024;2023-06-10T17:25:45;25.80;30.30
70244;DHT22;57634;51.136;17.024;2023-06-10T17:28:46;25.80;30.50
70244;DHT22;57634;51.136;17.024;2023-06-10T17:31:47;25.70;30.50
70244;DHT22;57634;51.136;17.024;2023-06-10T17:35:14;25.70;30.50
70244;DHT22;57634;51.136;17.024;2023-06-10T17:38:15;25.60;30.50
70244;DHT22;57634;51.136;17.024;2023-06-10T17:41:20;25.60;30.60
70244;DHT22;57634;51.136;17.024;2023-06-10T17:44:22;25.50;30.60
70244;DHT22;57634;51.136;17.024;2023-06-10T17:47:25;25.40;30.70
70244;DHT22;57634;51.136;17.024;2023-06-10T17:50:27;25.40;31.00
70244;DHT22;57634;51.136;17.024;2023-06-10T17:53:29;25.40;31.30
70244;DHT22;57634;51.136;17.024;2023-06-10T17:56:30;25.30;31.40
70244;DHT22;57634;51.136;17.024;2023-06-10T17:59:32;25.20;31.50
70244;DHT22;57634;51.136;17.024;2023-06-10T18:02:34;25.20;31.90
70244;DHT22;57634;51.136;17.024;2023-06-10T18:05:35;25.10;32.00
70244;DHT22;57634;51.136;17.024;2023-06-10T18:08:37;25.00;32.00
70244;DHT22;57634;51.136;17.024;2023-06-10T18:11:38;25.00;32.20
70244;DHT22;57634;51.136;17.024;2023-06-10T18:15:06;24.90;32.40
70244;DHT22;57634;51.136;17.024;2023-06-10T18:18:08;24.80;32.70
70244;DHT22;57634;51.136;17.024;2023-06-10T18:21:10;24.80;32.70
70244;DHT22;57634;51.136;17.024;2023-06-10T18:24:11;24.70;32.80
70244;DHT22;57634;51.136;17.024;2023-06-10T18:27:13;24.60;33.00
70244;DHT22;57634;51.136;17.024;2023-06-10T18:30:14;24.50;32.80
70244;DHT22;57634;51.136;17.024;2023-06-10T18:33:15;24.40;32.90
70244;DHT22;57634;51.136;17.024;2023-06-10T18:36:17;24.30;33.00
70244;DHT22;57634;51.136;17.024;2023-06-10T18:39:18;24.30;33.20
70244;DHT22;57634;51.136;17.024;2023-06-10T18:42:20;24.20;33.30
70244;DHT22;57634;51.136;17.024;2023-06-10T18:45:21;24.00;33.50
70244;DHT22;57634;51.136;17.024;2023-06-10T18:48:24;23.90;33.70
70244;DHT22;57634;51.136;17.024;2023-06-10T18:51:25;23.80;33.90
70244;DHT22;57634;51.136;17.024;2023-06-10T18:54:27;23.60;34.20
70244;DHT22;57634;51.136;17.024;2023-06-10T18:57:54;23.50;34.50
70244;DHT22;57634;51.136;17.024;2023-06-10T19:00:55;23.30;35.00
70244;DHT22;57634;51.136;17.024;2023-06-10T19:03:57;23.20;35.20
70244;DHT22;57634;51.136;17.024;2023-06-10T19:06:58;23.00;35.50
70244;DHT22;57634;51.136;17.024;2023-06-10T19:10:00;22.90;35.70
70244;DHT22;57634;51.136;17.024;2023-06-10T19:13:02;22.90;35.80
70244;DHT22;57634;51.136;17.024;2023-06-10T19:16:04;22.80;35.90
70244;DHT22;57634;51.136;17.024;2023-06-10T19:19:07;22.70;35.90
70244;DHT22;57634;51.136;17.024;2023-06-10T19:22:09;22.60;36.00
70244;DHT22;57634;51.136;17.024;2023-06-10T19:25:10;22.50;36.00
70244;DHT22;57634;51.136;17.024;2023-06-10T19:28:11;22.50;36.30